Nearby METAR Reports

 

KMQY - Smyrna, Tennessee, USA
Distance from station: WNW 14mi, 22km
Updated: Mon, 11-Nov-2019 11:56pm CST
Light snow, Mist, Overcast
Light snow, Mist, Overcast
 Wind from NNW
Wind: NNW 21 mph , 33 km/h, Gust: 30 mph , 48 km/h
Temperature: 28°F , -2°C
Wind Chill: 14°F , -10°C
Dew Point: 27°F , -3°C
Humidity: 93%
Barometer: 30.25 inHg , 1024.4 hPa
Summary: Light snow, Mist
Clouds: Overcast
Visibility: 3 miles , 5 km
Cloud details: Overcast 1000 ft
2019/11/12 05:56 KMQY 120556Z AUTO 34018G26KT 3SM -SN BR OVC010 M02/M03 A3025 RMK AO2 PK WND 34026/0549 FZRAE0459SNB0459 CIG 007V014 SLP253 6//// T10171028 10061 21017 401781017 51017 PNO $
KSYI - Shelbyville, Tennessee, USA
Distance from station: SSW 25mi, 40km
Updated: Mon, 11-Nov-2019 11:55pm CST
Mist, Overcast
Mist, Overcast
 Wind from N
Wind: N 18 mph , 30 km/h, Gust: 35 mph , 56 km/h
Temperature: 32°F , 0°C
Wind Chill: 21°F , -6°C
Dew Point: 30°F , -1°C
Humidity: 93%
Barometer: 30.19 inHg , 1022.4 hPa
Summary: Mist
Clouds: Overcast
Visibility: 3 miles , 5 km
Cloud details: Partly cloudy 800 ft
Mostly cloudy 1400 ft
Overcast 1800 ft
2019/11/12 05:55 KSYI 120555Z AUTO 35016G30KT 3SM BR SCT008 BKN014 OVC018 M00/M01 A3019 RMK A01
KBNA - Nashville, Tennessee, USA
Distance from station: NW 25mi, 41km
Updated: Mon, 11-Nov-2019 11:53pm CST
Light snow, Mist, Overcast
Light snow, Mist, Overcast
 Wind from NNW
Wind: NNW 16 mph , 26 km/h
Temperature: 28°F , -2°C
Wind Chill: 16°F , -9°C
Dew Point: 25°F , -4°C
Humidity: 86%
Barometer: 30.26 inHg , 1024.7 hPa
Summary: Light snow, Mist
Clouds: Overcast
Visibility: 2 1/2 miles , 4 km
Cloud details: Mostly cloudy 1400 ft
Overcast 2300 ft
2019/11/12 05:53 KBNA 120553Z 34014KT 2 1/2SM -SN BR BKN014 OVC023 M02/M04 A3026 RMK AO2 SLP247 P0003 60025 I6001 T10171044 10072 21017 401781017 51023 $
 
KRNC - Mcminnville, Tennessee, USA
Distance from station: ESE 30mi, 48km
Updated: Mon, 11-Nov-2019 11:55pm CST
Mist, Overcast
Mist, Overcast
 Wind from N
Wind: N 12 mph , 19 km/h, Gust: 18 mph , 30 km/h
Temperature: 34°F , 1°C
Wind Chill: 25°F , -4°C
Dew Point: 32°F , 0°C
Humidity: 93%
Barometer: 30.15 inHg , 1021 hPa
Summary: Mist
Clouds: Overcast
Visibility: 2 1/2 miles , 4 km
Cloud details: Mostly cloudy 700 ft
Overcast 1500 ft
2019/11/12 05:55 KRNC 120555Z AUTO 35010G16KT 2 1/2SM BR BKN007 OVC015 01/00 A3015 RMK A01 P0002
KM33 - Gallatin, Tennessee, USA
Distance from station: N 33mi, 54km
Updated: Wed, 23-May-2018 7:55pm CDT
NOT Current
Clear
Clear
 Wind from calm
Wind: Calm
Temperature: 79°F , 26°C
Dew Point: 66°F , 19°C
Humidity: 65%
Barometer: 30.10 inHg , 1019.3 hPa
Clouds: Clear
Visibility: 10 miles , 16 km
2018/05/24 00:55 KM33 240055Z AUTO 00000KT 10SM CLR 26/19 A3010 RMK A01
KTHA - Tullahoma, Tennessee, USA
Distance from station: S 36mi, 59km
Updated: Mon, 11-Nov-2019 11:55pm CST
Overcast
Overcast
 Wind from N
Wind: N 15 mph , 24 km/h
Temperature: 34°F , 1°C
Wind Chill: 24°F , -4°C
Dew Point: 32°F , 0°C
Humidity: 93%
Barometer: 30.13 inHg , 1020.3 hPa
Clouds: Overcast
Visibility: 7 miles , 11 km
Cloud details: Partly cloudy 700 ft
Mostly cloudy 1000 ft
Overcast 2400 ft
2019/11/12 05:55 KTHA 120555Z AUTO 35013KT 7SM SCT007 BKN010 OVC024 01/M00 A3013 RMK A01 P0001
 
KJWN - Nashv/Jc Tune, Tennessee, USA
Distance from station: WNW 37mi, 60km
Updated: Mon, 11-Nov-2019 11:55pm CST
Mist, Overcast
Mist, Overcast
 Wind from NNW
Wind: NNW 10 mph , 17 km/h, Gust: 20 mph , 31 km/h
Temperature: 27°F , -3°C
Wind Chill: 18°F , -8°C
Dew Point: 25°F , -4°C
Humidity: 93%
Barometer: 30.26 inHg , 1024.7 hPa
Summary: Mist
Clouds: Overcast
Visibility: 1 1/4 miles , 2 km
Cloud details: Overcast 300 ft
2019/11/12 05:55 KJWN 120555Z AUTO 33009G17KT 1 1/4SM BR OVC003 M03/M04 A3026 RMK A01 P0002
KSRB - Sparta, Tennessee, USA
Distance from station: ENE 45mi, 72km
Updated: Mon, 11-Nov-2019 11:55pm CST
Mist, Overcast
Mist, Overcast
 Wind from N
Wind: N 12 mph , 19 km/h, Gust: 17 mph , 28 km/h
Temperature: 34°F , 1°C
Wind Chill: 25°F , -4°C
Dew Point: 32°F , 0°C
Humidity: 93%
Barometer: 30.16 inHg , 1021.3 hPa
Summary: Mist
Clouds: Overcast
Visibility: 2 miles , 3 km
Cloud details: Mostly cloudy 600 ft
Overcast 1100 ft
2019/11/12 05:55 KSRB 120555Z AUTO 35010G15KT 2SM BR BKN006 OVC011 01/M00 A3016 RMK A01 P0001
K1M5 - Portland, Tennessee, USA
Distance from station: NNW 49mi, 78km
Updated: Mon, 11-Nov-2019 11:55pm CST
Mist, Overcast
Mist, Overcast
 Wind from N
Wind: N 18 mph , 30 km/h
Temperature: 27°F , -3°C
Wind Chill: 14°F , -10°C
Dew Point: 25°F , -4°C
Humidity: 93%
Barometer: 30.24 inHg , 1024 hPa
Summary: Mist
Clouds: Overcast
Visibility: 2 miles , 3 km
Cloud details: Few Clouds 300 ft
Overcast 1200 ft
2019/11/12 05:55 K1M5 120555Z AUTO 35016KT 2SM BR FEW003 OVC012 M03/M04 A3024 RMK A01